createdAt,value
2022-10-05T00:00:45.155Z,100483.91
2022-10-05T00:03:11.967Z,100491.38
2022-10-05T00:05:38.510Z,100485.09
2022-10-05T00:08:13.092Z,100483.44
2022-10-05T00:10:41.366Z,100478.25
2022-10-05T00:13:20.598Z,100484.25
2022-10-05T00:15:48.522Z,100495.22
2022-10-05T00:18:20.151Z,100493.25
2022-10-05T00:20:47.825Z,100492.19
2022-10-05T00:23:18.901Z,100481.34
2022-10-05T00:25:45.783Z,100474.03
2022-10-05T00:28:26.961Z,100474.59
2022-10-05T00:30:57.768Z,100473.06
2022-10-05T00:33:24.517Z,100474.50
2022-10-05T00:35:51.089Z,100475.31
2022-10-05T00:38:17.817Z,100474.59
2022-10-05T00:41:08.522Z,100472.69
2022-10-05T00:44:01.900Z,100474.22
2022-10-05T00:46:44.594Z,100476.03
2022-10-05T00:49:40.536Z,100479.63
2022-10-05T00:52:38.129Z,100482.66
2022-10-05T00:55:16.917Z,100486.63
2022-10-05T00:58:08.988Z,100488.31
2022-10-05T01:00:43.970Z,100483.63
2022-10-05T01:03:29.606Z,100478.66
2022-10-05T01:06:08.192Z,100468.78
2022-10-05T01:08:47.382Z,100471.88
2022-10-05T01:11:20.810Z,100486.31
2022-10-05T01:14:18.675Z,100484.50
2022-10-05T01:17:04.614Z,100484.38
2022-10-05T01:20:08.599Z,100486.50
2022-10-05T01:23:03.096Z,100482.63
2022-10-05T01:25:38.745Z,100482.06
2022-10-05T01:28:12.098Z,100489.22
2022-10-05T01:30:43.652Z,100482.50
2022-10-05T01:33:25.918Z,100479.72
2022-10-05T01:36:03.420Z,100478.75
2022-10-05T01:38:54.584Z,100470.03
2022-10-05T01:41:33.496Z,100469.72
2022-10-05T01:44:31.450Z,100459.31
2022-10-05T01:47:05.427Z,100468.63
2022-10-05T01:49:47.135Z,100482.09
2022-10-05T01:52:51.219Z,100492.28
2022-10-05T01:55:54.165Z,100481.94
2022-10-05T01:58:37.094Z,100492.41
2022-10-05T02:01:08.299Z,100496.03
2022-10-05T02:03:39.621Z,100497.97
2022-10-05T02:06:13.207Z,100489.63
2022-10-05T02:09:13.773Z,100485.13
2022-10-05T02:11:41.075Z,100476.84
2022-10-05T02:14:11.723Z,100472.63
2022-10-05T02:16:43.318Z,100477.06
2022-10-05T02:19:16.142Z,100467.19
2022-10-05T02:21:45.121Z,100463.66
2022-10-05T02:24:15.798Z,100442.31
2022-10-05T02:26:42.563Z,100424.84
2022-10-05T02:29:11.627Z,100413.28
2022-10-05T02:31:41.254Z,100418.03
2022-10-05T02:34:28.427Z,100434.50
2022-10-05T02:37:25.191Z,100442.69
2022-10-05T02:40:13.368Z,100449.72
2022-10-05T02:42:54.293Z,100438.16
2022-10-05T02:45:46.206Z,100429.75
2022-10-05T02:48:23.891Z,100420.69
2022-10-05T02:50:56.155Z,100432.56
2022-10-05T02:53:44.153Z,100459.94
2022-10-05T02:56:31.847Z,100446.13
2022-10-05T02:59:35.688Z,100435.25
2022-10-05T03:02:12.448Z,100447.59
2022-10-05T03:04:43.765Z,100452.50
2022-10-05T03:07:17.793Z,100460.53
2022-10-05T03:10:14.941Z,100473.66
2022-10-05T03:12:55.603Z,100464.97
2022-10-05T03:15:40.232Z,100462.81
2022-10-05T03:18:37.446Z,100460.28
2022-10-05T03:21:23.570Z,100463.44
2022-10-05T03:24:18.320Z,100473.97
2022-10-05T03:27:06.960Z,100480.66
2022-10-05T03:29:38.356Z,100477.00
2022-10-05T03:32:45.667Z,100476.19
2022-10-05T03:35:18.554Z,100468.41
2022-10-05T03:37:52.568Z,100474.25
2022-10-05T03:40:22.260Z,100468.69
2022-10-05T03:42:53.380Z,100456.47
2022-10-05T03:45:22.681Z,100444.41
2022-10-05T03:48:01.313Z,100447.09
2022-10-05T03:50:40.537Z,100451.97
2022-10-05T03:53:13.559Z,100453.94
2022-10-05T03:55:44.048Z,100457.41
2022-10-05T03:58:25.400Z,100446.13
2022-10-05T04:00:54.185Z,100456.16
2022-10-05T04:03:26.165Z,100437.91
2022-10-05T04:05:59.309Z,100437.19
2022-10-05T04:08:38.432Z,100434.94
2022-10-05T04:11:10.313Z,100430.78
2022-10-05T04:14:01.527Z,100423.09
2022-10-05T04:16:32.295Z,100436.38
2022-10-05T04:19:04.693Z,100429.31
2022-10-05T04:22:15.709Z,100437.59
2022-10-05T04:24:49.595Z,100441.31
2022-10-05T04:27:44.344Z,100448.59
2022-10-05T04:30:18.981Z,100440.91
2022-10-05T04:32:54.222Z,100442.28
2022-10-05T04:35:50.981Z,100451.13
2022-10-05T04:38:55.253Z,100453.22
2022-10-05T04:41:59.174Z,100449.63
2022-10-05T04:44:37.568Z,100458.16
2022-10-05T04:47:33.221Z,100460.25
2022-10-05T04:50:19.068Z,100448.13
2022-10-05T04:52:55.731Z,100458.53
2022-10-05T04:55:33.894Z,100456.88
2022-10-05T04:58:12.750Z,100451.13
2022-10-05T05:00:59.341Z,100452.22
2022-10-05T05:03:35.065Z,100456.53
2022-10-05T05:06:17.425Z,100469.09
2022-10-05T05:08:58.551Z,100469.22
2022-10-05T05:11:27.303Z,100468.00
2022-10-05T05:14:11.418Z,100472.06
2022-10-05T05:16:40.626Z,100474.84
2022-10-05T05:19:25.595Z,100468.63
2022-10-05T05:22:11.181Z,100467.13
2022-10-05T05:24:49.342Z,100471.22
2022-10-05T05:27:29.780Z,100480.13
2022-10-05T05:30:21.185Z,100468.16
2022-10-05T05:33:08.504Z,100475.84
2022-10-05T05:35:49.188Z,100467.22
2022-10-05T05:38:18.359Z,100462.63
2022-10-05T05:40:50.645Z,100449.13
2022-10-05T05:43:41.952Z,100448.97
2022-10-05T05:46:15.273Z,100462.94
2022-10-05T05:48:43.578Z,100471.56
2022-10-05T05:51:17.712Z,100464.31
2022-10-05T05:53:50.907Z,100465.88
2022-10-05T05:56:25.805Z,100465.19
2022-10-05T05:58:54.964Z,100463.16
2022-10-05T06:01:34.322Z,100467.38
2022-10-05T06:04:13.265Z,100476.03
2022-10-05T06:06:42.658Z,100470.44
2022-10-05T06:09:25.017Z,100458.72
2022-10-05T06:11:57.068Z,100467.81
2022-10-05T06:14:29.793Z,100470.94
2022-10-05T06:17:07.637Z,100472.63
2022-10-05T06:19:35.059Z,100469.97
2022-10-05T06:22:37.385Z,100462.00
2022-10-05T06:25:13.112Z,100459.63
2022-10-05T06:28:04.974Z,100460.31
2022-10-05T06:30:53.884Z,100457.94
2022-10-05T06:33:50.610Z,100476.28
2022-10-05T06:36:45.935Z,100452.22
2022-10-05T06:39:31.326Z,100453.88
2022-10-05T06:42:25.957Z,100466.75
2022-10-05T06:45:09.619Z,100465.34
2022-10-05T06:47:45.182Z,100474.59
2022-10-05T06:50:29.464Z,100481.88
2022-10-05T06:53:14.147Z,100485.78
2022-10-05T06:55:52.279Z,100484.13
2022-10-05T06:58:42.885Z,100483.56
2022-10-05T07:01:16.013Z,100487.34
2022-10-05T07:03:47.407Z,100487.47
2022-10-05T07:06:20.143Z,100479.31
2022-10-05T07:08:54.704Z,100473.81
2022-10-05T07:11:51.310Z,100478.84
2022-10-05T07:14:34.383Z,100477.66
2022-10-05T07:17:23.972Z,100476.72
2022-10-05T07:20:15.277Z,100471.09
2022-10-05T07:22:49.813Z,100467.91
2022-10-05T07:25:19.955Z,100478.38
2022-10-05T07:27:55.212Z,100471.94
2022-10-05T07:30:22.114Z,100485.66
2022-10-05T07:33:01.648Z,100485.97
2022-10-05T07:36:32.601Z,100477.00
2022-10-05T07:39:07.642Z,100477.69
2022-10-05T07:41:53.025Z,100474.09
2022-10-05T07:44:31.134Z,100468.84
2022-10-05T07:47:12.330Z,100475.94
2022-10-05T07:49:47.933Z,100465.91
2022-10-05T07:52:22.688Z,100469.22
2022-10-05T07:55:01.356Z,100466.78
2022-10-05T07:57:38.404Z,100472.34
2022-10-05T08:00:16.013Z,100463.03
2022-10-05T08:02:51.762Z,100469.63
2022-10-05T08:05:32.189Z,100463.09
2022-10-05T08:08:14.315Z,100467.94
2022-10-05T08:10:52.195Z,100468.47
2022-10-05T08:13:33.569Z,100458.88
2022-10-05T08:16:06.280Z,100452.94
2022-10-05T08:18:59.943Z,100448.09
2022-10-05T08:21:36.447Z,100463.06
2022-10-05T08:24:23.162Z,100468.31
2022-10-05T08:26:52.456Z,100470.16
2022-10-05T08:29:42.611Z,100455.28
2022-10-05T08:32:16.301Z,100448.06
2022-10-05T08:34:48.285Z,100452.72
2022-10-05T08:37:28.659Z,100451.25
2022-10-05T08:40:25.318Z,100453.63
2022-10-05T08:43:14.256Z,100443.41
2022-10-05T08:46:11.721Z,100457.13
2022-10-05T08:49:16.768Z,100451.59
2022-10-05T08:52:02.005Z,100461.13
2022-10-05T08:55:10.191Z,100446.75
2022-10-05T08:58:12.403Z,100448.44
2022-10-05T09:01:07.643Z,100439.38
2022-10-05T09:03:48.448Z,100438.53
2022-10-05T09:06:26.692Z,100423.63
2022-10-05T09:09:05.383Z,100432.53
2022-10-05T09:11:37.206Z,100428.81
2022-10-05T09:14:17.800Z,100424.25
2022-10-05T09:17:08.674Z,100418.09
2022-10-05T09:19:53.993Z,100413.84
2022-10-05T09:22:28.413Z,100414.34
2022-10-05T09:25:05.626Z,100412.00
2022-10-05T09:27:39.237Z,100409.13
2022-10-05T09:30:47.880Z,100424.16
2022-10-05T09:33:32.945Z,100428.75
2022-10-05T09:36:05.654Z,100412.75
2022-10-05T09:39:05.832Z,100410.94
2022-10-05T09:42:00.151Z,100411.28
2022-10-05T09:45:05.446Z,100414.09
2022-10-05T09:47:45.452Z,100423.06
2022-10-05T09:50:17.824Z,100426.06
2022-10-05T09:53:23.419Z,100413.75
2022-10-05T09:55:52.707Z,100420.47
2022-10-05T09:58:44.712Z,100421.63
2022-10-05T10:01:33.051Z,100423.97
2022-10-05T10:04:18.924Z,100425.16
2022-10-05T10:07:05.140Z,100430.16
2022-10-05T10:09:46.860Z,100442.72
2022-10-05T10:12:24.473Z,100442.81
2022-10-05T10:15:00.588Z,100441.13
2022-10-05T10:18:17.722Z,100451.09
2022-10-05T10:21:25.535Z,100453.56
2022-10-05T10:24:29.430Z,100458.44
2022-10-05T10:27:23.384Z,100448.47
2022-10-05T10:30:27.655Z,100441.25
2022-10-05T10:33:20.614Z,100430.41
2022-10-05T10:36:01.593Z,100422.72
2022-10-05T10:39:15.491Z,100416.56
2022-10-05T10:42:05.340Z,100422.19
2022-10-05T10:44:43.912Z,100413.38
2022-10-05T10:47:25.899Z,100400.63
2022-10-05T10:50:11.903Z,100401.63
2022-10-05T10:52:48.907Z,100387.63
2022-10-05T10:55:35.459Z,100380.19
2022-10-05T10:58:25.535Z,100388.66
2022-10-05T11:00:58.172Z,100384.31
2022-10-05T11:03:44.667Z,100393.00
2022-10-05T11:06:24.619Z,100390.19
2022-10-05T11:08:53.742Z,100372.22
2022-10-05T11:11:27.280Z,100371.78
2022-10-05T11:14:03.819Z,100375.22
2022-10-05T11:16:44.367Z,100383.06
2022-10-05T11:20:02.997Z,100376.94
2022-10-05T11:22:30.365Z,100378.78
2022-10-05T11:25:09.726Z,100374.34
2022-10-05T11:28:11.147Z,100374.25
2022-10-05T11:30:51.862Z,100378.84
2022-10-05T11:33:48.920Z,100374.03
2022-10-05T11:36:30.863Z,100366.34
2022-10-05T11:39:23.757Z,100376.72
2022-10-05T11:42:08.922Z,100368.97
2022-10-05T11:45:13.723Z,100370.09
2022-10-05T11:48:07.581Z,100366.47
2022-10-05T11:50:41.775Z,100371.78
2022-10-05T11:53:14.177Z,100371.78
2022-10-05T11:56:11.426Z,100365.97
2022-10-05T11:58:47.970Z,100360.94
2022-10-05T12:01:36.722Z,100362.03
2022-10-05T12:04:18.088Z,100366.94
2022-10-05T12:07:09.489Z,100362.59
2022-10-05T12:10:14.344Z,100364.56
2022-10-05T12:13:22.101Z,100364.34
2022-10-05T12:15:59.122Z,100368.25
2022-10-05T12:18:31.517Z,100368.88
2022-10-05T12:21:27.795Z,100361.03
2022-10-05T12:24:05.697Z,100351.94
2022-10-05T12:26:44.763Z,100346.56
2022-10-05T12:29:36.278Z,100353.50
2022-10-05T12:32:12.993Z,100352.78
2022-10-05T12:34:49.017Z,100351.38
2022-10-05T12:37:37.945Z,100359.28
2022-10-05T12:40:24.212Z,100352.44
2022-10-05T12:43:05.928Z,100351.13
2022-10-05T12:45:35.463Z,100355.47
2022-10-05T12:48:15.873Z,100349.25
2022-10-05T12:50:43.367Z,100354.53
2022-10-05T12:53:28.872Z,100346.56
2022-10-05T12:56:07.873Z,100342.03
2022-10-05T12:58:59.738Z,100348.31
2022-10-05T13:01:40.550Z,100343.69
2022-10-05T13:04:24.288Z,100353.44
2022-10-05T13:07:29.268Z,100349.00
2022-10-05T13:10:14.411Z,100339.44
2022-10-05T13:12:41.092Z,100340.13
2022-10-05T13:15:23.178Z,100349.75
2022-10-05T13:18:01.288Z,100343.88
2022-10-05T13:20:44.682Z,100348.78
2022-10-05T13:23:27.242Z,100342.03
2022-10-05T13:26:01.929Z,100335.66
2022-10-05T13:28:39.493Z,100337.31
2022-10-05T13:31:16.248Z,100348.91
2022-10-05T13:34:07.378Z,100345.19
2022-10-05T13:36:44.322Z,100339.00
2022-10-05T13:39:39.948Z,100335.66
2022-10-05T13:42:16.981Z,100339.53
2022-10-05T13:44:50.011Z,100338.22
2022-10-05T13:47:38.905Z,100340.84
2022-10-05T13:50:17.193Z,100351.28
2022-10-05T13:52:55.725Z,100349.53
2022-10-05T13:55:38.062Z,100339.72
2022-10-05T13:58:19.435Z,100326.19
2022-10-05T14:00:53.751Z,100329.81
2022-10-05T14:03:35.101Z,100328.41
2022-10-05T14:06:14.863Z,100320.94
2022-10-05T14:09:01.570Z,100314.81
2022-10-05T14:11:36.041Z,100314.81
2022-10-05T14:14:23.655Z,100307.59
2022-10-05T14:16:54.086Z,100308.97
2022-10-05T14:19:48.283Z,100310.00
2022-10-05T14:22:24.808Z,100313.97
2022-10-05T14:24:54.723Z,100302.41
2022-10-05T14:27:23.013Z,100302.56
2022-10-05T14:30:15.317Z,100311.47
2022-10-05T14:32:59.118Z,100312.09
2022-10-05T14:35:29.952Z,100305.25
2022-10-05T14:38:04.016Z,100307.81
2022-10-05T14:40:33.290Z,100301.56
2022-10-05T14:43:32.221Z,100314.78
2022-10-05T14:46:01.484Z,100316.75
2022-10-05T14:48:37.714Z,100311.28
2022-10-05T14:51:10.253Z,100312.75
2022-10-05T14:53:48.202Z,100312.63
2022-10-05T14:56:26.776Z,100313.56
2022-10-05T14:59:07.641Z,100307.94
2022-10-05T15:01:36.668Z,100301.91
2022-10-05T15:04:15.089Z,100305.56
2022-10-05T15:06:47.231Z,100297.09
2022-10-05T15:09:37.528Z,100276.84
2022-10-05T15:12:05.304Z,100291.03
2022-10-05T15:14:34.897Z,100285.44
2022-10-05T15:17:05.360Z,100289.13
2022-10-05T15:19:37.983Z,100286.72
2022-10-05T15:22:18.652Z,100283.28
2022-10-05T15:24:57.856Z,100289.53
2022-10-05T15:27:53.911Z,100290.34
2022-10-05T15:30:22.451Z,100279.78
2022-10-05T15:32:57.933Z,100270.38
2022-10-05T15:35:36.811Z,100276.81
2022-10-05T15:38:21.377Z,100272.59
2022-10-05T15:40:59.051Z,100270.63
2022-10-05T15:43:36.088Z,100269.16
2022-10-05T15:46:34.439Z,100263.16
2022-10-05T15:49:09.749Z,100262.94
2022-10-05T15:51:47.960Z,100274.50
2022-10-05T15:54:46.268Z,100283.88
2022-10-05T15:57:21.600Z,100266.19
2022-10-05T15:59:57.233Z,100265.72
2022-10-05T16:02:29.952Z,100278.75
2022-10-05T16:05:11.943Z,100283.16
2022-10-05T16:08:06.516Z,100276.75
2022-10-05T16:10:37.495Z,100267.44
2022-10-05T16:13:22.714Z,100259.03
2022-10-05T16:16:00.293Z,100258.78
2022-10-05T16:18:33.235Z,100249.75
2022-10-05T16:21:22.146Z,100245.59
2022-10-05T16:24:15.949Z,100244.09
2022-10-05T16:27:10.440Z,100243.72
2022-10-05T16:29:53.263Z,100239.84
2022-10-05T16:32:22.629Z,100236.56
2022-10-05T16:35:08.650Z,100236.88
2022-10-05T16:37:47.480Z,100244.75
2022-10-05T16:40:19.201Z,100229.50
2022-10-05T16:42:57.542Z,100228.69
2022-10-05T16:45:58.672Z,100225.41
2022-10-05T16:48:29.588Z,100232.09
2022-10-05T16:51:19.753Z,100228.91
2022-10-05T16:53:59.840Z,100225.56
2022-10-05T16:56:30.970Z,100232.09
2022-10-05T16:59:30.886Z,100224.75
2022-10-05T17:02:09.179Z,100229.44
2022-10-05T17:05:38.760Z,100232.16
2022-10-05T17:08:17.336Z,100234.19
2022-10-05T17:11:17.828Z,100239.22
2022-10-05T17:14:01.861Z,100244.53
2022-10-05T17:16:53.979Z,100251.59
2022-10-05T17:19:26.620Z,100251.13
2022-10-05T17:22:23.983Z,100241.59
2022-10-05T17:25:24.445Z,100246.47
2022-10-05T17:28:18.860Z,100242.88
2022-10-05T17:30:54.186Z,100232.34
2022-10-05T17:33:29.125Z,100228.22
2022-10-05T17:36:12.468Z,100231.72
2022-10-05T17:38:47.880Z,100224.00
2022-10-05T17:41:21.717Z,100225.91
2022-10-05T17:44:07.333Z,100229.56
2022-10-05T17:46:38.889Z,100232.75
2022-10-05T17:49:22.787Z,100224.41
2022-10-05T17:52:08.057Z,100228.44
2022-10-05T17:55:13.988Z,100220.25
2022-10-05T17:57:42.066Z,100213.72
2022-10-05T18:00:31.882Z,100220.25
2022-10-05T18:02:58.634Z,100220.88
2022-10-05T18:05:27.920Z,100216.53
2022-10-05T18:08:13.069Z,100224.41
2022-10-05T18:11:06.809Z,100219.91
2022-10-05T18:13:45.698Z,100220.91
2022-10-05T18:16:13.053Z,100218.59
2022-10-05T18:18:43.111Z,100212.41
2022-10-05T18:21:15.374Z,100208.72
2022-10-05T18:24:14.110Z,100209.75
2022-10-05T18:26:53.725Z,100208.41
2022-10-05T18:29:54.518Z,100211.59
2022-10-05T18:32:29.310Z,100206.41
2022-10-05T18:35:11.325Z,100206.25
2022-10-05T18:37:49.579Z,100210.88
2022-10-05T18:40:26.910Z,100206.75
2022-10-05T18:43:13.746Z,100206.91
2022-10-05T18:45:55.814Z,100215.09
2022-10-05T18:48:31.340Z,100215.44
2022-10-05T18:51:22.125Z,100221.28
2022-10-05T18:54:19.055Z,100212.91
2022-10-05T18:56:53.012Z,100219.59
2022-10-05T18:59:36.855Z,100220.72
2022-10-05T19:02:11.230Z,100220.06
2022-10-05T19:04:48.168Z,100207.69
2022-10-05T19:07:41.503Z,100207.19
2022-10-05T19:10:37.749Z,100207.19
2022-10-05T19:13:34.892Z,100203.38
2022-10-05T19:16:30.157Z,100211.75
2022-10-05T19:19:33.477Z,100204.88
2022-10-05T19:22:40.347Z,100205.91
2022-10-05T19:25:28.382Z,100200.03
2022-10-05T19:28:05.860Z,100202.53
2022-10-05T19:31:04.701Z,100202.53
2022-10-05T19:33:33.762Z,100198.03
2022-10-05T19:36:16.361Z,100208.41
2022-10-05T19:38:57.717Z,100203.75
2022-10-05T19:42:01.808Z,100210.78
2022-10-05T19:44:53.237Z,100216.25
2022-10-05T19:47:37.476Z,100202.59
2022-10-05T19:50:25.265Z,100206.59
2022-10-05T19:53:11.531Z,100205.91
2022-10-05T19:55:43.822Z,100209.59
2022-10-05T19:58:22.409Z,100203.91
2022-10-05T20:00:55.666Z,100204.91
2022-10-05T20:03:29.182Z,100210.78
2022-10-05T20:06:01.226Z,100208.09
2022-10-05T20:08:36.481Z,100213.94
2022-10-05T20:11:16.617Z,100207.28
2022-10-05T20:13:45.920Z,100217.97
2022-10-05T20:16:33.916Z,100218.50
2022-10-05T20:19:38.359Z,100220.31
2022-10-05T20:22:29.111Z,100223.31
2022-10-05T20:24:57.806Z,100220.97
2022-10-05T20:27:39.467Z,100221.00
2022-10-05T20:30:07.206Z,100222.31
2022-10-05T20:32:33.904Z,100224.16
2022-10-05T20:35:00.389Z,100226.84
2022-10-05T20:37:26.952Z,100229.50
2022-10-05T20:39:53.399Z,100230.66
2022-10-05T20:42:20.931Z,100226.00
2022-10-05T20:44:50.778Z,100219.47
2022-10-05T20:47:19.508Z,100217.31
2022-10-05T20:49:45.987Z,100227.63
2022-10-05T20:52:15.019Z,100233.00
2022-10-05T20:54:42.084Z,100228.97
2022-10-05T20:57:09.519Z,100235.31
2022-10-05T20:59:36.667Z,100238.66
2022-10-05T21:02:04.852Z,100236.31
2022-10-05T21:04:40.799Z,100237.81
2022-10-05T21:07:08.286Z,100236.47
2022-10-05T21:09:38.139Z,100237.97
2022-10-05T21:12:05.317Z,100239.66
2022-10-05T21:14:34.218Z,100246.34
2022-10-05T21:17:01.851Z,100249.19
2022-10-05T21:19:29.400Z,100249.00
2022-10-05T21:21:58.374Z,100246.66
2022-10-05T21:24:25.407Z,100248.00
2022-10-05T21:26:51.841Z,100248.97
2022-10-05T21:29:18.359Z,100249.63
2022-10-05T21:31:44.855Z,100241.59
2022-10-05T21:34:11.417Z,100248.25
2022-10-05T21:36:37.908Z,100254.47
2022-10-05T21:39:05.102Z,100250.25
2022-10-05T21:41:31.587Z,100258.88
2022-10-05T21:43:58.414Z,100253.25
2022-10-05T21:46:28.071Z,100252.56
2022-10-05T21:48:55.143Z,100257.56
2022-10-05T21:51:24.113Z,100260.22
2022-10-05T21:53:54.557Z,100256.69
2022-10-05T21:56:23.594Z,100254.16
2022-10-05T21:58:50.479Z,100255.13
2022-10-05T22:01:22.462Z,100250.94
2022-10-05T22:03:49.539Z,100257.56
2022-10-05T22:06:16.120Z,100247.53
2022-10-05T22:08:42.617Z,100250.38
2022-10-05T22:11:12.161Z,100247.66
2022-10-05T22:13:49.732Z,100249.63
2022-10-05T22:16:18.252Z,100249.22
2022-10-05T22:18:44.831Z,100251.41
2022-10-05T22:21:12.401Z,100247.19
2022-10-05T22:23:40.427Z,100250.31
2022-10-05T22:26:08.741Z,100251.44
2022-10-05T22:28:35.691Z,100238.31
2022-10-05T22:31:04.902Z,100249.13
2022-10-05T22:33:31.372Z,100240.31
2022-10-05T22:35:59.247Z,100244.41
2022-10-05T22:38:26.449Z,100246.03
2022-10-05T22:40:53.144Z,100242.03
2022-10-05T22:43:19.580Z,100246.91
2022-10-05T22:45:46.135Z,100242.44
2022-10-05T22:48:12.807Z,100253.06
2022-10-05T22:50:39.358Z,100255.66
2022-10-05T22:53:06.029Z,100248.28
2022-10-05T22:55:32.431Z,100250.63
2022-10-05T22:57:58.848Z,100258.56
2022-10-05T23:00:40.339Z,100251.88
2022-10-05T23:03:12.772Z,100257.69
2022-10-05T23:05:39.173Z,100254.47
2022-10-05T23:08:05.589Z,100254.56
2022-10-05T23:10:32.328Z,100255.38
2022-10-05T23:13:01.053Z,100260.72
2022-10-05T23:15:27.799Z,100255.38
2022-10-05T23:17:56.210Z,100256.00
2022-10-05T23:20:24.512Z,100267.50
2022-10-05T23:22:51.066Z,100268.31
2022-10-05T23:25:17.959Z,100273.03
2022-10-05T23:27:44.400Z,100269.88
2022-10-05T23:30:12.123Z,100270.53
2022-10-05T23:32:40.539Z,100278.13
2022-10-05T23:35:08.230Z,100272.81
2022-10-05T23:37:42.432Z,100269.31
2022-10-05T23:40:12.180Z,100280.09
2022-10-05T23:42:41.550Z,100277.16
2022-10-05T23:45:10.000Z,100275.00
2022-10-05T23:47:37.133Z,100273.19
2022-10-05T23:50:06.879Z,100273.81
2022-10-05T23:52:34.141Z,100270.97
2022-10-05T23:55:00.890Z,100269.31
2022-10-05T23:57:27.306Z,100267.09
2022-10-05T23:59:56.196Z,100265.72
